createdAt,value
2023-02-13T00:00:46.113Z,12.10
2023-02-13T00:03:14.353Z,12.68
2023-02-13T00:05:41.817Z,12.57
2023-02-13T00:08:09.401Z,13.07
2023-02-13T00:10:37.048Z,11.98
2023-02-13T00:13:04.556Z,12.75
2023-02-13T00:15:32.566Z,11.57
2023-02-13T00:18:00.060Z,10.60
2023-02-13T00:20:27.632Z,13.88
2023-02-13T00:22:55.077Z,13.00
2023-02-13T00:42:35.644Z,11.88
2023-02-13T00:45:03.216Z,11.48
2023-02-13T01:21:53.409Z,10.90
2023-02-13T01:24:20.900Z,12.15
2023-02-13T01:26:48.328Z,10.88
2023-02-13T01:29:15.740Z,12.25
2023-02-13T01:31:43.218Z,14.43
2023-02-13T01:34:10.697Z,10.85
2023-02-13T01:36:38.347Z,9.88
2023-02-13T01:39:05.796Z,10.32
2023-02-13T01:41:33.247Z,12.18
2023-02-13T01:44:02.295Z,10.35
2023-02-13T01:46:38.213Z,11.43
2023-02-13T01:49:13.615Z,10.63
2023-02-13T01:51:43.057Z,12.35
2023-02-13T01:54:17.463Z,10.27
2023-02-13T01:56:57.557Z,10.95
2023-02-13T01:59:41.470Z,11.95
2023-02-13T02:02:09.236Z,9.32
2023-02-13T02:04:40.609Z,10.85
2023-02-13T02:07:29.729Z,13.30
2023-02-13T02:10:11.698Z,14.00
2023-02-13T02:12:50.168Z,8.90
2023-02-13T02:15:20.285Z,9.65
2023-02-13T02:17:47.996Z,9.90
2023-02-13T02:20:46.930Z,9.30
2023-02-13T02:24:00.411Z,9.85
2023-02-13T02:27:04.436Z,10.40
2023-02-13T02:29:52.074Z,9.75
2023-02-13T02:32:28.903Z,10.75
2023-02-13T02:35:18.332Z,10.15
2023-02-13T02:38:17.600Z,11.85
2023-02-13T02:41:35.098Z,11.15
2023-02-13T02:44:25.093Z,8.75
2023-02-13T02:47:26.860Z,10.23
2023-02-13T02:50:14.573Z,12.05
2023-02-13T02:53:05.981Z,10.93
2023-02-13T02:55:38.492Z,10.18
2023-02-13T02:58:47.456Z,9.88
2023-02-13T03:01:37.130Z,10.60
2023-02-13T03:04:24.326Z,10.60
2023-02-13T03:07:01.143Z,8.70
2023-02-13T03:13:19.815Z,9.32
2023-02-13T03:16:11.362Z,9.75
2023-02-13T03:19:01.224Z,11.93
2023-02-13T03:22:09.254Z,9.70
2023-02-13T03:24:45.948Z,13.73
2023-02-13T03:27:42.561Z,8.57
2023-02-13T03:30:37.259Z,11.98
2023-02-13T03:33:23.881Z,14.60
2023-02-13T03:41:25.528Z,13.25
2023-02-13T03:44:13.895Z,13.40
2023-02-13T03:46:46.081Z,12.68
2023-02-13T03:49:45.149Z,13.35
2023-02-13T03:52:28.230Z,9.25
2023-02-13T03:55:29.193Z,10.27
2023-02-13T03:58:19.444Z,15.50
2023-02-13T04:00:52.494Z,16.13
2023-02-13T04:03:27.007Z,10.95
2023-02-13T04:06:02.101Z,10.98
2023-02-13T04:08:30.953Z,11.55
2023-02-13T04:11:17.453Z,16.27
2023-02-13T04:13:53.328Z,14.40
2023-02-13T04:16:32.220Z,15.27
2023-02-13T04:19:01.135Z,15.30
2023-02-13T04:21:33.716Z,16.20
2023-02-13T04:24:01.591Z,12.82
2023-02-13T04:26:36.175Z,10.73
2023-02-13T04:29:06.008Z,10.25
2023-02-13T04:31:34.912Z,13.30
2023-02-13T04:34:02.510Z,14.45
2023-02-13T04:36:31.140Z,10.27
2023-02-13T04:39:00.359Z,13.27
2023-02-13T04:41:27.997Z,12.65
2023-02-13T04:43:55.844Z,12.70
2023-02-13T04:46:23.838Z,16.85
2023-02-13T04:48:51.371Z,16.20
2023-02-13T08:36:54.821Z,34.38
2023-02-13T08:41:49.669Z,35.63
2023-02-13T09:03:55.781Z,26.58
2023-02-13T09:16:16.136Z,33.75
2023-02-13T09:18:52.608Z,32.53
2023-02-13T09:21:23.714Z,33.70
2023-02-13T09:23:51.717Z,32.35
2023-02-13T09:26:20.699Z,28.70
2023-02-13T09:28:48.584Z,26.63
2023-02-13T09:31:19.255Z,30.77
2023-02-13T09:33:48.568Z,27.42
2023-02-13T09:36:22.602Z,28.55
2023-02-13T09:38:57.740Z,24.67
2023-02-13T09:41:28.012Z,25.15
2023-02-13T09:43:59.228Z,30.05
2023-02-13T09:46:33.777Z,25.85
2023-02-13T09:49:30.657Z,27.23
2023-02-13T09:51:58.609Z,28.37
2023-02-13T09:54:28.977Z,25.00
2023-02-13T09:57:25.531Z,28.17
2023-02-13T10:00:14.044Z,27.10
2023-02-13T10:03:08.485Z,29.25
2023-02-13T10:05:57.301Z,26.50
2023-02-13T10:08:28.051Z,29.80
2023-02-13T10:11:26.371Z,29.30
2023-02-13T10:14:32.916Z,31.88
2023-02-13T10:17:05.989Z,32.15
2023-02-13T10:19:33.461Z,26.20
2023-02-13T10:22:07.414Z,28.25
2023-02-13T10:24:41.948Z,25.95
2023-02-13T10:27:21.488Z,30.85
2023-02-13T10:30:12.918Z,30.58
2023-02-13T16:15:21.366Z,33.20
2023-02-13T16:17:49.311Z,37.10
2023-02-13T16:20:25.805Z,34.67
2023-02-13T16:23:16.715Z,37.95
2023-02-13T16:25:46.296Z,38.00
2023-02-13T16:28:22.211Z,35.30
2023-02-13T16:30:59.169Z,37.35
2023-02-13T16:33:34.776Z,35.22
2023-02-13T16:36:11.224Z,34.42
2023-02-13T16:38:46.186Z,38.13
2023-02-13T16:41:19.771Z,37.17
2023-02-13T16:43:49.211Z,34.45
2023-02-13T16:46:19.506Z,35.58
2023-02-13T16:48:59.682Z,41.17
2023-02-13T16:51:30.204Z,37.33
2023-02-13T16:54:03.917Z,35.90
2023-02-13T16:56:53.964Z,34.88
2023-02-13T16:59:35.238Z,36.03
2023-02-13T19:26:22.469Z,47.97
2023-02-13T19:28:51.258Z,48.88
2023-02-13T19:31:23.049Z,51.83
2023-02-13T19:33:52.165Z,54.20
2023-02-13T19:36:23.972Z,53.80
2023-02-13T19:39:00.302Z,53.47
2023-02-13T19:41:29.569Z,52.63
2023-02-13T19:43:58.034Z,52.42
2023-02-13T19:46:31.911Z,51.78
2023-02-13T19:49:01.368Z,51.22
2023-02-13T19:51:33.394Z,49.25
2023-02-13T19:54:04.234Z,52.30
2023-02-13T19:56:36.077Z,53.60
2023-02-13T19:59:05.929Z,53.03
2023-02-13T20:01:36.170Z,58.38
2023-02-13T20:04:04.705Z,74.68
2023-02-13T20:06:36.203Z,109.85
2023-02-13T20:09:09.970Z,93.13
2023-02-13T20:11:41.647Z,70.00
2023-02-13T20:14:15.377Z,55.08
2023-02-13T20:16:47.247Z,53.67
2023-02-13T20:19:19.964Z,49.63
2023-02-13T20:21:48.902Z,51.83
2023-02-13T20:24:18.397Z,53.73
2023-02-13T20:26:48.071Z,51.05
2023-02-13T20:29:17.725Z,49.83
2023-02-13T20:31:47.314Z,53.13
2023-02-13T20:34:17.125Z,48.50
2023-02-13T20:36:48.861Z,50.25
2023-02-13T20:39:18.031Z,52.03
2023-02-13T20:41:50.841Z,50.42
2023-02-13T20:44:21.126Z,52.95
2023-02-13T20:46:51.574Z,55.97
2023-02-13T20:49:23.014Z,54.00
2023-02-13T20:51:52.265Z,50.78
2023-02-13T20:54:21.112Z,50.17
2023-02-13T20:56:51.060Z,51.03
2023-02-13T20:59:20.805Z,49.75
2023-02-13T21:01:51.016Z,50.72
2023-02-13T21:04:21.222Z,51.20
2023-02-13T21:06:51.140Z,49.45
2023-02-13T21:09:19.818Z,50.78
2023-02-13T21:11:49.079Z,50.50
2023-02-13T21:14:19.211Z,49.50
2023-02-13T21:16:47.987Z,50.27
2023-02-13T21:19:20.555Z,47.00
2023-02-13T21:21:49.631Z,48.67
2023-02-13T21:24:21.600Z,50.85
2023-02-13T21:26:53.884Z,47.20
2023-02-13T21:29:22.897Z,49.50
2023-02-13T21:31:51.547Z,52.33
2023-02-13T21:34:21.430Z,51.38
2023-02-13T21:36:50.941Z,49.75
2023-02-13T21:39:20.147Z,52.45
2023-02-13T21:41:49.586Z,48.70
2023-02-13T21:44:18.446Z,51.33
2023-02-13T21:46:47.214Z,51.47
2023-02-13T21:49:17.958Z,49.60
2023-02-13T21:51:46.707Z,50.58
2023-02-13T21:54:14.945Z,50.33
2023-02-13T21:56:43.964Z,52.05
2023-02-13T21:59:24.871Z,53.27
2023-02-13T22:01:54.880Z,56.47
2023-02-13T22:04:22.929Z,53.08
2023-02-13T22:06:52.602Z,53.03
2023-02-13T22:09:22.015Z,53.27
2023-02-13T22:11:51.909Z,54.00
2023-02-13T22:14:20.438Z,53.97
2023-02-13T22:16:52.972Z,49.05
2023-02-13T22:19:20.835Z,46.38
2023-02-13T22:29:16.415Z,46.40
2023-02-13T22:31:45.726Z,46.35
2023-02-13T22:34:13.888Z,46.28
2023-02-13T22:36:43.121Z,47.50
2023-02-13T22:39:12.340Z,44.55
2023-02-13T22:41:41.180Z,47.28
2023-02-13T22:44:08.907Z,48.47
